Home   Weather   Spain   Sevilla   Past weeks
Flag for Spain

Past Weather in Sevilla, Seville, Spain — Yesterday and Last 2 Weeks

Currently: 68 °F. Passing clouds. (Weather station: Sevilla / San Pablo, Spain). See more current weather

Past Weather in Sevilla — Graph

°F

Sevilla Temperature Yesterday

Maximum temperature yesterday: 79 °F (at 5:30 pm)
Minimum temperature yesterday: 52 °F (at 7:00 am)
Average temperature yesterday: 65 °F

High & Low Weather Summary for the Past Weeks

 TemperatureHumidityPressure
High90 °F (May 10, 6:00 pm)94% (May 17, 5:00 am)30.12 "Hg (May 17, 5:00 am)
Low50 °F (May 16, 7:00 am)18% (May 8, 5:00 pm)29.80 "Hg (May 14, 5:30 pm)
Average68 °F51%29.93 "Hg
* Reported May 7 10:00 am — May 22 10:30 am, Sevilla. Weather by CustomWeather, © 2024

Note: Actual official high and low records may vary slightly from our data, if they occured in-between our weather recording intervals... More about our weather records

Sevilla Weather History for the Previous 24 Hours

Scroll right to see more
 ConditionsComfort  
Time TempWeatherWind HumidityBarometerVisibility
10:30 am
Wed, May 22
66 °FPassing clouds.6 mph49%30.12 "HgN/A
10:00 am64 °FPassing clouds.6 mph49%30.12 "HgN/A
9:00 am61 °FPassing clouds.7 mph59%30.09 "HgN/A
8:30 am59 °FSunny.5 mph63%30.09 "Hg10 mi
8:00 am59 °FSunny.6 mph59%30.09 "Hg10 mi
7:00 am57 °FPassing clouds.5 mph67%30.09 "HgN/A
6:30 am54 °FPassing clouds.3 mph77%30.09 "HgN/A
6:00 am52 °FClear.5 mph82%30.09 "Hg10 mi
5:30 am54 °FClear.5 mph82%30.09 "Hg10 mi
5:00 am55 °FClear.1 mph77%30.09 "Hg10 mi
4:30 am57 °FClear.2 mph67%30.09 "Hg10 mi
4:00 am59 °FClear.2 mph63%30.09 "Hg10 mi
3:30 am57 °FPassing clouds.5 mph67%30.09 "HgN/A
2:30 am59 °FPassing clouds.3 mph72%30.09 "HgN/A
2:00 am59 °FPassing clouds.3 mph77%30.09 "HgN/A
1:30 am59 °FPassing clouds.3 mph72%30.09 "HgN/A
1:00 am61 °FClear.1 mph68%30.09 "Hg10 mi
12:30 am63 °FClear.6 mph64%30.09 "Hg10 mi
12:00 am61 °FClear.6 mph63%30.09 "Hg10 mi
11:30 pm
Tue, May 21
64 °FPassing clouds.5 mph56%30.09 "HgN/A
11:00 pm66 °FPassing clouds.6 mph52%30.07 "HgN/A
10:30 pm66 °FPassing clouds.8 mph56%30.07 "HgN/A
10:00 pm68 °FPassing clouds.9 mph49%30.07 "HgN/A
9:30 pm68 °FPassing clouds.13 mph53%30.04 "HgN/A
9:00 pm70 °FPassing clouds.14 mph50%30.04 "HgN/A
8:30 pm73 °FSunny.16 mph41%30.04 "Hg10 mi
8:00 pm75 °FPassing clouds.13 mph36%30.01 "HgN/A
7:30 pm75 °FPassing clouds.13 mph34%30.01 "HgN/A
7:00 pm77 °FPassing clouds.13 mph32%30.01 "HgN/A
6:30 pm77 °FPassing clouds.13 mph28%30.01 "HgN/A
6:00 pm79 °FPassing clouds.12 mph28%30.01 "HgN/A
5:30 pm79 °FSunny.14 mph28%30.01 "Hg10 mi
5:00 pm75 °FPassing clouds.13 mph31%30.01 "HgN/A
4:00 pm77 °FPassing clouds.15 mph32%30.04 "HgN/A
3:30 pm75 °FPassing clouds.9 mph34%30.04 "HgN/A
3:00 pm75 °FPassing clouds.12 mph36%30.04 "HgN/A
2:30 pm72 °FSunny.7 mph38%30.07 "Hg10 mi
2:00 pm73 °FSunny.6 mph36%30.07 "Hg10 mi
1:00 pm70 °FPassing clouds.9 mph40%30.07 "HgN/A
12:30 pm68 °FPassing clouds.5 mph46%30.07 "HgN/A
12:00 pm66 °FPassing clouds.7 mph49%30.07 "HgN/A
11:30 am66 °FPassing clouds.7 mph49%30.07 "HgN/A
11:00 am64 °FPassing clouds.6 mph52%30.07 "HgN/A
Weather by CustomWeather, © 2024

See weather overview